sensor_id;sensor_type;location;lat;lon;timestamp;temperature;humidity
38514;DHT22;24282;48.400;10.808;2023-04-03T00:01:28;5.10;71.50
38514;DHT22;24282;48.400;10.808;2023-04-03T00:03:55;5.10;71.50
38514;DHT22;24282;48.400;10.808;2023-04-03T00:06:21;5.10;70.80
38514;DHT22;24282;48.400;10.808;2023-04-03T00:08:47;5.10;69.90
38514;DHT22;24282;48.400;10.808;2023-04-03T00:11:13;5.10;69.70
38514;DHT22;24282;48.400;10.808;2023-04-03T00:13:39;5.10;69.80
38514;DHT22;24282;48.400;10.808;2023-04-03T00:16:06;5.10;69.70
38514;DHT22;24282;48.400;10.808;2023-04-03T00:18:32;5.00;69.60
38514;DHT22;24282;48.400;10.808;2023-04-03T00:20:58;5.00;69.90
38514;DHT22;24282;48.400;10.808;2023-04-03T00:23:24;5.00;70.70
38514;DHT22;24282;48.400;10.808;2023-04-03T00:25:50;5.00;70.40
38514;DHT22;24282;48.400;10.808;2023-04-03T00:28:16;5.00;69.20
38514;DHT22;24282;48.400;10.808;2023-04-03T00:30:42;5.00;69.20
38514;DHT22;24282;48.400;10.808;2023-04-03T00:33:13;5.00;69.90
38514;DHT22;24282;48.400;10.808;2023-04-03T00:35:40;5.00;70.50
38514;DHT22;24282;48.400;10.808;2023-04-03T00:38:06;5.00;70.00
38514;DHT22;24282;48.400;10.808;2023-04-03T00:40:39;5.00;69.90
38514;DHT22;24282;48.400;10.808;2023-04-03T00:43:23;5.00;69.60
38514;DHT22;24282;48.400;10.808;2023-04-03T00:45:51;5.00;70.10
38514;DHT22;24282;48.400;10.808;2023-04-03T00:50:49;5.00;70.10
38514;DHT22;24282;48.400;10.808;2023-04-03T00:53:19;5.00;71.20
38514;DHT22;24282;48.400;10.808;2023-04-03T00:55:48;4.90;70.60
38514;DHT22;24282;48.400;10.808;2023-04-03T00:58:16;4.90;69.60
38514;DHT22;24282;48.400;10.808;2023-04-03T01:00:46;4.90;70.20
38514;DHT22;24282;48.400;10.808;2023-04-03T01:03:13;4.90;69.60
38514;DHT22;24282;48.400;10.808;2023-04-03T01:05:40;4.80;69.80
38514;DHT22;24282;48.400;10.808;2023-04-03T01:08:06;4.80;68.20
38514;DHT22;24282;48.400;10.808;2023-04-03T01:10:33;4.80;68.30
38514;DHT22;24282;48.400;10.808;2023-04-03T01:12:59;4.90;69.80
38514;DHT22;24282;48.400;10.808;2023-04-03T01:15:26;4.80;69.00
38514;DHT22;24282;48.400;10.808;2023-04-03T01:17:56;4.80;70.20
38514;DHT22;24282;48.400;10.808;2023-04-03T01:28:04;4.70;69.50
38514;DHT22;24282;48.400;10.808;2023-04-03T01:30:33;4.70;69.90
38514;DHT22;24282;48.400;10.808;2023-04-03T01:33:00;4.80;70.30
38514;DHT22;24282;48.400;10.808;2023-04-03T01:35:26;4.80;69.90
38514;DHT22;24282;48.400;10.808;2023-04-03T01:37:52;4.70;69.30
38514;DHT22;24282;48.400;10.808;2023-04-03T01:40:17;4.80;69.40
38514;DHT22;24282;48.400;10.808;2023-04-03T01:42:44;4.70;69.60
38514;DHT22;24282;48.400;10.808;2023-04-03T01:45:11;4.70;69.40
38514;DHT22;24282;48.400;10.808;2023-04-03T01:47:37;4.70;69.30
38514;DHT22;24282;48.400;10.808;2023-04-03T01:50:03;4.80;69.30
38514;DHT22;24282;48.400;10.808;2023-04-03T01:52:31;4.80;70.30
38514;DHT22;24282;48.400;10.808;2023-04-03T01:54:57;4.80;69.40
38514;DHT22;24282;48.400;10.808;2023-04-03T01:57:23;4.80;69.70
38514;DHT22;24282;48.400;10.808;2023-04-03T01:59:48;4.70;70.00
38514;DHT22;24282;48.400;10.808;2023-04-03T02:02:14;4.70;70.20
38514;DHT22;24282;48.400;10.808;2023-04-03T02:04:41;4.70;70.40
38514;DHT22;24282;48.400;10.808;2023-04-03T02:07:06;4.70;70.50
38514;DHT22;24282;48.400;10.808;2023-04-03T02:09:32;4.70;69.30
38514;DHT22;24282;48.400;10.808;2023-04-03T02:11:58;4.70;70.40
38514;DHT22;24282;48.400;10.808;2023-04-03T02:14:24;4.70;71.00
38514;DHT22;24282;48.400;10.808;2023-04-03T02:16:50;4.70;71.00
38514;DHT22;24282;48.400;10.808;2023-04-03T02:19:15;4.70;70.90
38514;DHT22;24282;48.400;10.808;2023-04-03T02:21:41;4.70;71.40
38514;DHT22;24282;48.400;10.808;2023-04-03T02:24:07;4.70;70.10
38514;DHT22;24282;48.400;10.808;2023-04-03T02:26:33;4.70;70.40
38514;DHT22;24282;48.400;10.808;2023-04-03T02:28:59;4.70;71.00
38514;DHT22;24282;48.400;10.808;2023-04-03T02:31:25;4.60;71.20
38514;DHT22;24282;48.400;10.808;2023-04-03T02:33:52;4.60;70.90
38514;DHT22;24282;48.400;10.808;2023-04-03T02:36:18;4.60;71.10
38514;DHT22;24282;48.400;10.808;2023-04-03T02:38:50;4.60;71.80
38514;DHT22;24282;48.400;10.808;2023-04-03T02:41:16;4.60;70.70
38514;DHT22;24282;48.400;10.808;2023-04-03T02:43:42;4.60;70.90
38514;DHT22;24282;48.400;10.808;2023-04-03T02:46:08;4.70;70.80
38514;DHT22;24282;48.400;10.808;2023-04-03T02:48:34;4.70;70.30
38514;DHT22;24282;48.400;10.808;2023-04-03T02:51:01;4.70;70.80
38514;DHT22;24282;48.400;10.808;2023-04-03T02:53:26;4.70;71.20
38514;DHT22;24282;48.400;10.808;2023-04-03T02:55:52;4.70;70.70
38514;DHT22;24282;48.400;10.808;2023-04-03T02:58:18;4.70;70.40
38514;DHT22;24282;48.400;10.808;2023-04-03T03:00:44;4.70;70.70
38514;DHT22;24282;48.400;10.808;2023-04-03T03:03:10;4.70;69.30
38514;DHT22;24282;48.400;10.808;2023-04-03T03:05:36;4.60;70.00
38514;DHT22;24282;48.400;10.808;2023-04-03T03:08:01;4.60;70.70
38514;DHT22;24282;48.400;10.808;2023-04-03T03:10:27;4.60;71.40
38514;DHT22;24282;48.400;10.808;2023-04-03T03:12:53;4.70;71.40
38514;DHT22;24282;48.400;10.808;2023-04-03T03:15:18;4.60;71.90
38514;DHT22;24282;48.400;10.808;2023-04-03T03:17:45;4.60;71.00
38514;DHT22;24282;48.400;10.808;2023-04-03T03:20:11;4.60;70.70
38514;DHT22;24282;48.400;10.808;2023-04-03T03:22:37;4.60;71.00
38514;DHT22;24282;48.400;10.808;2023-04-03T03:25:03;4.60;70.60
38514;DHT22;24282;48.400;10.808;2023-04-03T03:27:30;4.60;71.50
38514;DHT22;24282;48.400;10.808;2023-04-03T03:29:56;4.60;70.90
38514;DHT22;24282;48.400;10.808;2023-04-03T03:32:21;4.50;70.60
38514;DHT22;24282;48.400;10.808;2023-04-03T03:34:47;4.60;70.90
38514;DHT22;24282;48.400;10.808;2023-04-03T03:37:13;4.50;70.80
38514;DHT22;24282;48.400;10.808;2023-04-03T03:39:38;4.60;70.60
38514;DHT22;24282;48.400;10.808;2023-04-03T03:42:04;4.50;70.70
38514;DHT22;24282;48.400;10.808;2023-04-03T03:44:30;4.50;71.30
38514;DHT22;24282;48.400;10.808;2023-04-03T03:46:57;4.50;71.10
38514;DHT22;24282;48.400;10.808;2023-04-03T03:49:22;4.50;70.90
38514;DHT22;24282;48.400;10.808;2023-04-03T03:51:48;4.50;71.90
38514;DHT22;24282;48.400;10.808;2023-04-03T03:54:14;4.50;71.50
38514;DHT22;24282;48.400;10.808;2023-04-03T03:56:40;4.50;70.50
38514;DHT22;24282;48.400;10.808;2023-04-03T03:59:06;4.50;70.90
38514;DHT22;24282;48.400;10.808;2023-04-03T04:01:32;4.50;71.70
38514;DHT22;24282;48.400;10.808;2023-04-03T04:03:58;4.50;71.10
38514;DHT22;24282;48.400;10.808;2023-04-03T04:06:28;4.50;71.20
38514;DHT22;24282;48.400;10.808;2023-04-03T04:08:57;4.50;71.30
38514;DHT22;24282;48.400;10.808;2023-04-03T04:11:24;4.50;70.60
38514;DHT22;24282;48.400;10.808;2023-04-03T04:13:53;4.50;71.00
38514;DHT22;24282;48.400;10.808;2023-04-03T04:16:23;4.40;71.90
38514;DHT22;24282;48.400;10.808;2023-04-03T04:18:48;4.50;71.60
38514;DHT22;24282;48.400;10.808;2023-04-03T04:21:14;4.50;71.40
38514;DHT22;24282;48.400;10.808;2023-04-03T04:23:41;4.40;71.90
38514;DHT22;24282;48.400;10.808;2023-04-03T04:26:07;4.50;71.60
38514;DHT22;24282;48.400;10.808;2023-04-03T04:28:35;4.40;71.70
38514;DHT22;24282;48.400;10.808;2023-04-03T04:31:02;4.40;71.80
38514;DHT22;24282;48.400;10.808;2023-04-03T04:33:29;4.40;71.60
38514;DHT22;24282;48.400;10.808;2023-04-03T04:35:57;4.50;71.40
38514;DHT22;24282;48.400;10.808;2023-04-03T04:38:23;4.40;71.50
38514;DHT22;24282;48.400;10.808;2023-04-03T04:40:51;4.40;71.70
38514;DHT22;24282;48.400;10.808;2023-04-03T04:43:17;4.40;72.60
38514;DHT22;24282;48.400;10.808;2023-04-03T04:45:45;4.40;71.60
38514;DHT22;24282;48.400;10.808;2023-04-03T04:48:11;4.40;70.80
38514;DHT22;24282;48.400;10.808;2023-04-03T04:50:37;4.40;71.70
38514;DHT22;24282;48.400;10.808;2023-04-03T04:53:03;4.40;71.40
38514;DHT22;24282;48.400;10.808;2023-04-03T04:55:29;4.30;71.80
38514;DHT22;24282;48.400;10.808;2023-04-03T04:57:55;4.30;72.60
38514;DHT22;24282;48.400;10.808;2023-04-03T05:00:21;4.30;71.60
38514;DHT22;24282;48.400;10.808;2023-04-03T05:02:47;4.30;71.40
38514;DHT22;24282;48.400;10.808;2023-04-03T05:05:13;4.40;71.10
38514;DHT22;24282;48.400;10.808;2023-04-03T05:07:39;4.40;70.70
38514;DHT22;24282;48.400;10.808;2023-04-03T05:10:06;4.40;70.90
38514;DHT22;24282;48.400;10.808;2023-04-03T05:12:33;4.30;72.10
38514;DHT22;24282;48.400;10.808;2023-04-03T05:15:02;4.30;72.50
38514;DHT22;24282;48.400;10.808;2023-04-03T05:17:30;4.30;72.70
38514;DHT22;24282;48.400;10.808;2023-04-03T05:19:56;4.30;72.00
38514;DHT22;24282;48.400;10.808;2023-04-03T05:22:23;4.30;71.80
38514;DHT22;24282;48.400;10.808;2023-04-03T05:24:51;4.30;72.30
38514;DHT22;24282;48.400;10.808;2023-04-03T05:27:19;4.20;72.60
38514;DHT22;24282;48.400;10.808;2023-04-03T05:29:50;4.30;72.70
38514;DHT22;24282;48.400;10.808;2023-04-03T05:32:20;4.30;72.80
38514;DHT22;24282;48.400;10.808;2023-04-03T05:34:50;4.30;72.00
38514;DHT22;24282;48.400;10.808;2023-04-03T05:37:19;4.30;72.00
38514;DHT22;24282;48.400;10.808;2023-04-03T05:39:45;4.30;71.30
38514;DHT22;24282;48.400;10.808;2023-04-03T05:42:11;4.30;72.00
38514;DHT22;24282;48.400;10.808;2023-04-03T05:44:38;4.30;72.10
38514;DHT22;24282;48.400;10.808;2023-04-03T05:47:04;4.30;72.00
38514;DHT22;24282;48.400;10.808;2023-04-03T05:49:30;4.30;71.80
38514;DHT22;24282;48.400;10.808;2023-04-03T05:51:56;4.20;72.20
38514;DHT22;24282;48.400;10.808;2023-04-03T05:54:29;4.30;72.30
38514;DHT22;24282;48.400;10.808;2023-04-03T05:57:02;4.30;72.40
38514;DHT22;24282;48.400;10.808;2023-04-03T05:59:29;4.30;72.30
38514;DHT22;24282;48.400;10.808;2023-04-03T06:01:57;4.30;72.20
38514;DHT22;24282;48.400;10.808;2023-04-03T06:04:23;4.30;72.90
38514;DHT22;24282;48.400;10.808;2023-04-03T06:09:21;4.30;72.60
38514;DHT22;24282;48.400;10.808;2023-04-03T06:11:47;4.40;72.80
38514;DHT22;24282;48.400;10.808;2023-04-03T06:14:14;4.30;73.20
38514;DHT22;24282;48.400;10.808;2023-04-03T06:16:40;4.30;72.90
38514;DHT22;24282;48.400;10.808;2023-04-03T06:19:10;4.30;73.10
38514;DHT22;24282;48.400;10.808;2023-04-03T06:21:40;4.40;72.40
38514;DHT22;24282;48.400;10.808;2023-04-03T06:24:07;4.40;72.00
38514;DHT22;24282;48.400;10.808;2023-04-03T06:26:34;4.50;72.00
38514;DHT22;24282;48.400;10.808;2023-04-03T06:28:59;4.50;71.60
38514;DHT22;24282;48.400;10.808;2023-04-03T06:31:27;4.40;71.80
38514;DHT22;24282;48.400;10.808;2023-04-03T06:33:53;4.40;72.80
38514;DHT22;24282;48.400;10.808;2023-04-03T06:36:20;4.40;72.50
38514;DHT22;24282;48.400;10.808;2023-04-03T06:38:47;4.50;72.50
38514;DHT22;24282;48.400;10.808;2023-04-03T06:41:13;4.50;72.60
38514;DHT22;24282;48.400;10.808;2023-04-03T06:43:39;4.50;72.50
38514;DHT22;24282;48.400;10.808;2023-04-03T06:46:04;4.50;71.70
38514;DHT22;24282;48.400;10.808;2023-04-03T06:48:30;4.50;72.10
38514;DHT22;24282;48.400;10.808;2023-04-03T06:50:56;4.50;72.20
38514;DHT22;24282;48.400;10.808;2023-04-03T06:53:22;4.50;72.20
38514;DHT22;24282;48.400;10.808;2023-04-03T06:55:48;4.50;72.10
38514;DHT22;24282;48.400;10.808;2023-04-03T06:58:13;4.60;72.30
38514;DHT22;24282;48.400;10.808;2023-04-03T07:00:41;4.60;72.40
38514;DHT22;24282;48.400;10.808;2023-04-03T07:03:06;4.60;71.70
38514;DHT22;24282;48.400;10.808;2023-04-03T07:05:32;4.60;72.10
38514;DHT22;24282;48.400;10.808;2023-04-03T07:07:58;4.70;71.50
38514;DHT22;24282;48.400;10.808;2023-04-03T07:10:23;4.70;71.60
38514;DHT22;24282;48.400;10.808;2023-04-03T07:12:49;4.70;72.00
38514;DHT22;24282;48.400;10.808;2023-04-03T07:15:15;4.70;72.40
38514;DHT22;24282;48.400;10.808;2023-04-03T07:17:41;4.80;72.10
38514;DHT22;24282;48.400;10.808;2023-04-03T07:20:07;4.80;72.00
38514;DHT22;24282;48.400;10.808;2023-04-03T07:22:33;4.80;71.00
38514;DHT22;24282;48.400;10.808;2023-04-03T07:24:59;4.80;70.80
38514;DHT22;24282;48.400;10.808;2023-04-03T07:27:25;4.80;71.50
38514;DHT22;24282;48.400;10.808;2023-04-03T07:29:51;4.90;71.60
38514;DHT22;24282;48.400;10.808;2023-04-03T07:32:17;4.90;72.00
38514;DHT22;24282;48.400;10.808;2023-04-03T07:34:43;5.00;71.80
38514;DHT22;24282;48.400;10.808;2023-04-03T07:37:10;4.90;71.70
38514;DHT22;24282;48.400;10.808;2023-04-03T07:39:35;5.00;72.00
38514;DHT22;24282;48.400;10.808;2023-04-03T07:42:02;5.00;71.60
38514;DHT22;24282;48.400;10.808;2023-04-03T07:44:28;5.00;71.20
38514;DHT22;24282;48.400;10.808;2023-04-03T07:46:54;5.10;71.20
38514;DHT22;24282;48.400;10.808;2023-04-03T07:49:22;5.10;71.00
38514;DHT22;24282;48.400;10.808;2023-04-03T07:51:50;5.10;70.90
38514;DHT22;24282;48.400;10.808;2023-04-03T07:54:16;5.10;71.40
38514;DHT22;24282;48.400;10.808;2023-04-03T07:56:41;5.10;71.60
38514;DHT22;24282;48.400;10.808;2023-04-03T07:59:09;5.10;70.80
38514;DHT22;24282;48.400;10.808;2023-04-03T08:01:35;5.10;71.50
38514;DHT22;24282;48.400;10.808;2023-04-03T08:04:00;5.10;71.80
38514;DHT22;24282;48.400;10.808;2023-04-03T08:06:26;5.20;71.60
38514;DHT22;24282;48.400;10.808;2023-04-03T08:08:54;5.20;70.30
38514;DHT22;24282;48.400;10.808;2023-04-03T08:11:20;5.20;70.70
38514;DHT22;24282;48.400;10.808;2023-04-03T08:13:46;5.20;71.50
38514;DHT22;24282;48.400;10.808;2023-04-03T08:16:16;5.20;71.20
38514;DHT22;24282;48.400;10.808;2023-04-03T08:18:43;5.20;71.40
38514;DHT22;24282;48.400;10.808;2023-04-03T08:21:10;5.30;72.10
38514;DHT22;24282;48.400;10.808;2023-04-03T08:23:37;5.30;71.50
38514;DHT22;24282;48.400;10.808;2023-04-03T08:26:10;5.30;71.70
38514;DHT22;24282;48.400;10.808;2023-04-03T08:28:37;5.40;70.60
38514;DHT22;24282;48.400;10.808;2023-04-03T08:31:09;5.40;70.70
38514;DHT22;24282;48.400;10.808;2023-04-03T08:33:37;5.50;70.50
38514;DHT22;24282;48.400;10.808;2023-04-03T08:36:05;5.50;71.00
38514;DHT22;24282;48.400;10.808;2023-04-03T08:38:31;5.40;71.40
38514;DHT22;24282;48.400;10.808;2023-04-03T08:41:34;5.50;71.00
38514;DHT22;24282;48.400;10.808;2023-04-03T08:47:37;5.60;69.20
38514;DHT22;24282;48.400;10.808;2023-04-03T08:49:57;5.60;69.00
38514;DHT22;24282;48.400;10.808;2023-04-03T08:52:40;5.70;68.70
38514;DHT22;24282;48.400;10.808;2023-04-03T08:55:28;5.70;69.30
38514;DHT22;24282;48.400;10.808;2023-04-03T08:58:06;5.70;68.20
38514;DHT22;24282;48.400;10.808;2023-04-03T09:03:15;5.70;68.60
38514;DHT22;24282;48.400;10.808;2023-04-03T09:06:07;5.70;68.80
38514;DHT22;24282;48.400;10.808;2023-04-03T09:08:51;5.70;68.80
38514;DHT22;24282;48.400;10.808;2023-04-03T09:11:25;5.60;69.20
38514;DHT22;24282;48.400;10.808;2023-04-03T09:14:22;5.60;69.50
38514;DHT22;24282;48.400;10.808;2023-04-03T09:22:25;5.80;70.80
38514;DHT22;24282;48.400;10.808;2023-04-03T09:25:26;5.90;69.50
38514;DHT22;24282;48.400;10.808;2023-04-03T09:27:53;6.00;68.40
38514;DHT22;24282;48.400;10.808;2023-04-03T09:30:24;6.00;68.20
38514;DHT22;24282;48.400;10.808;2023-04-03T09:32:53;6.00;67.30
38514;DHT22;24282;48.400;10.808;2023-04-03T09:37:58;6.10;66.80
38514;DHT22;24282;48.400;10.808;2023-04-03T09:42:58;6.00;67.20
38514;DHT22;24282;48.400;10.808;2023-04-03T09:45:35;5.90;67.90
38514;DHT22;24282;48.400;10.808;2023-04-03T09:50:52;5.90;66.90
38514;DHT22;24282;48.400;10.808;2023-04-03T09:53:42;5.90;67.30
38514;DHT22;24282;48.400;10.808;2023-04-03T09:58:45;6.00;67.70
38514;DHT22;24282;48.400;10.808;2023-04-03T10:01:35;6.00;67.30
38514;DHT22;24282;48.400;10.808;2023-04-03T10:04:13;6.00;66.60
38514;DHT22;24282;48.400;10.808;2023-04-03T10:06:41;5.90;66.90
38514;DHT22;24282;48.400;10.808;2023-04-03T10:12:08;6.10;66.70
38514;DHT22;24282;48.400;10.808;2023-04-03T10:15:10;6.10;66.90
38514;DHT22;24282;48.400;10.808;2023-04-03T10:17:42;6.20;67.50
38514;DHT22;24282;48.400;10.808;2023-04-03T10:38:59;6.30;65.20
38514;DHT22;24282;48.400;10.808;2023-04-03T10:41:34;6.30;65.00
38514;DHT22;24282;48.400;10.808;2023-04-03T10:46:56;6.20;64.70
38514;DHT22;24282;48.400;10.808;2023-04-03T10:57:40;6.40;64.10
38514;DHT22;24282;48.400;10.808;2023-04-03T11:00:14;6.40;64.70
38514;DHT22;24282;48.400;10.808;2023-04-03T11:02:52;6.40;64.40
38514;DHT22;24282;48.400;10.808;2023-04-03T11:05:42;6.40;63.40
38514;DHT22;24282;48.400;10.808;2023-04-03T11:08:30;6.50;63.60
38514;DHT22;24282;48.400;10.808;2023-04-03T11:11:03;6.50;63.50
38514;DHT22;24282;48.400;10.808;2023-04-03T11:13:41;6.50;63.20
38514;DHT22;24282;48.400;10.808;2023-04-03T11:16:14;6.50;63.00
38514;DHT22;24282;48.400;10.808;2023-04-03T11:21:42;6.50;64.50
38514;DHT22;24282;48.400;10.808;2023-04-03T11:24:22;6.40;64.00
38514;DHT22;24282;48.400;10.808;2023-04-03T11:26:50;6.40;63.60
38514;DHT22;24282;48.400;10.808;2023-04-03T11:29:38;6.40;63.60
38514;DHT22;24282;48.400;10.808;2023-04-03T11:34:57;6.40;63.30
38514;DHT22;24282;48.400;10.808;2023-04-03T11:37:43;6.40;63.50
38514;DHT22;24282;48.400;10.808;2023-04-03T11:42:48;6.50;63.10
38514;DHT22;24282;48.400;10.808;2023-04-03T11:48:41;6.40;64.00
38514;DHT22;24282;48.400;10.808;2023-04-03T11:51:02;6.40;63.10
38514;DHT22;24282;48.400;10.808;2023-04-03T11:55:59;6.40;62.80
38514;DHT22;24282;48.400;10.808;2023-04-03T11:58:29;6.40;61.50
38514;DHT22;24282;48.400;10.808;2023-04-03T12:16:22;6.60;60.20
38514;DHT22;24282;48.400;10.808;2023-04-03T12:43:39;7.50;56.30
38514;DHT22;24282;48.400;10.808;2023-04-03T12:51:05;7.90;56.80
38514;DHT22;24282;48.400;10.808;2023-04-03T12:53:34;8.00;56.10
38514;DHT22;24282;48.400;10.808;2023-04-03T12:56:24;8.10;54.60
38514;DHT22;24282;48.400;10.808;2023-04-03T12:58:51;8.20;54.80
38514;DHT22;24282;48.400;10.808;2023-04-03T13:01:21;8.30;53.10
38514;DHT22;24282;48.400;10.808;2023-04-03T13:03:54;8.50;52.80
38514;DHT22;24282;48.400;10.808;2023-04-03T13:06:24;8.40;52.50
38514;DHT22;24282;48.400;10.808;2023-04-03T13:08:53;8.40;52.70
38514;DHT22;24282;48.400;10.808;2023-04-03T13:11:20;8.50;52.80
38514;DHT22;24282;48.400;10.808;2023-04-03T13:14:01;8.70;51.30
38514;DHT22;24282;48.400;10.808;2023-04-03T13:16:27;8.90;48.60
38514;DHT22;24282;48.400;10.808;2023-04-03T13:18:54;8.80;47.60
38514;DHT22;24282;48.400;10.808;2023-04-03T13:21:28;8.70;48.50
38514;DHT22;24282;48.400;10.808;2023-04-03T13:23:57;8.50;48.80
38514;DHT22;24282;48.400;10.808;2023-04-03T13:26:26;8.40;48.80
38514;DHT22;24282;48.400;10.808;2023-04-03T13:28:56;8.40;50.90
38514;DHT22;24282;48.400;10.808;2023-04-03T13:34:17;8.20;51.20
38514;DHT22;24282;48.400;10.808;2023-04-03T13:41:47;7.90;51.70
38514;DHT22;24282;48.400;10.808;2023-04-03T13:46:50;7.70;50.90
38514;DHT22;24282;48.400;10.808;2023-04-03T13:49:36;7.70;51.70
38514;DHT22;24282;48.400;10.808;2023-04-03T13:52:26;7.70;50.40
38514;DHT22;24282;48.400;10.808;2023-04-03T13:54:55;7.60;51.50
38514;DHT22;24282;48.400;10.808;2023-04-03T13:57:22;7.70;51.90
38514;DHT22;24282;48.400;10.808;2023-04-03T13:59:48;7.70;50.50
38514;DHT22;24282;48.400;10.808;2023-04-03T14:02:26;7.80;50.20
38514;DHT22;24282;48.400;10.808;2023-04-03T14:04:56;8.00;50.50
38514;DHT22;24282;48.400;10.808;2023-04-03T14:07:25;8.20;50.10
38514;DHT22;24282;48.400;10.808;2023-04-03T14:09:52;8.30;50.00
38514;DHT22;24282;48.400;10.808;2023-04-03T14:12:30;8.40;49.90
38514;DHT22;24282;48.400;10.808;2023-04-03T14:14:56;8.50;49.90
38514;DHT22;24282;48.400;10.808;2023-04-03T14:17:24;8.60;50.10
38514;DHT22;24282;48.400;10.808;2023-04-03T14:19:51;8.80;50.00
38514;DHT22;24282;48.400;10.808;2023-04-03T14:22:20;9.00;49.50
38514;DHT22;24282;48.400;10.808;2023-04-03T14:24:48;9.40;47.60
38514;DHT22;24282;48.400;10.808;2023-04-03T14:27:24;9.60;46.30
38514;DHT22;24282;48.400;10.808;2023-04-03T14:29:53;9.90;45.50
38514;DHT22;24282;48.400;10.808;2023-04-03T14:32:21;10.00;43.80
38514;DHT22;24282;48.400;10.808;2023-04-03T14:34:49;9.80;42.30
38514;DHT22;24282;48.400;10.808;2023-04-03T14:37:17;9.50;41.50
38514;DHT22;24282;48.400;10.808;2023-04-03T14:39:44;9.30;42.60
38514;DHT22;24282;48.400;10.808;2023-04-03T14:42:17;9.10;42.70
38514;DHT22;24282;48.400;10.808;2023-04-03T14:44:43;8.90;42.20
38514;DHT22;24282;48.400;10.808;2023-04-03T14:47:11;8.70;42.50
38514;DHT22;24282;48.400;10.808;2023-04-03T14:49:37;8.80;42.90
38514;DHT22;24282;48.400;10.808;2023-04-03T14:52:03;8.80;43.10
38514;DHT22;24282;48.400;10.808;2023-04-03T14:54:29;8.90;53.00
38514;DHT22;24282;48.400;10.808;2023-04-03T14:56:58;9.10;46.50
38514;DHT22;24282;48.400;10.808;2023-04-03T14:59:25;9.40;44.30
38514;DHT22;24282;48.400;10.808;2023-04-03T15:01:51;9.60;42.50
38514;DHT22;24282;48.400;10.808;2023-04-03T15:04:19;9.90;42.50
38514;DHT22;24282;48.400;10.808;2023-04-03T15:06:46;10.10;40.90
38514;DHT22;24282;48.400;10.808;2023-04-03T15:09:25;10.20;39.00
38514;DHT22;24282;48.400;10.808;2023-04-03T15:11:52;10.40;38.50
38514;DHT22;24282;48.400;10.808;2023-04-03T15:14:19;10.40;38.50
38514;DHT22;24282;48.400;10.808;2023-04-03T15:16:45;10.40;39.10
38514;DHT22;24282;48.400;10.808;2023-04-03T15:19:11;10.50;40.00
38514;DHT22;24282;48.400;10.808;2023-04-03T15:21:37;10.40;40.60
38514;DHT22;24282;48.400;10.808;2023-04-03T15:24:04;10.30;40.50
38514;DHT22;24282;48.400;10.808;2023-04-03T15:26:30;10.40;40.00
38514;DHT22;24282;48.400;10.808;2023-04-03T15:28:57;10.40;39.60
38514;DHT22;24282;48.400;10.808;2023-04-03T15:31:22;10.40;39.20
38514;DHT22;24282;48.400;10.808;2023-04-03T15:33:48;10.50;39.60
38514;DHT22;24282;48.400;10.808;2023-04-03T15:36:14;10.50;38.80
38514;DHT22;24282;48.400;10.808;2023-04-03T15:38:39;10.20;37.70
38514;DHT22;24282;48.400;10.808;2023-04-03T15:41:05;9.90;38.80
38514;DHT22;24282;48.400;10.808;2023-04-03T15:43:31;9.80;38.80
38514;DHT22;24282;48.400;10.808;2023-04-03T15:45:59;9.70;38.90
38514;DHT22;24282;48.400;10.808;2023-04-03T15:48:27;9.90;39.10
38514;DHT22;24282;48.400;10.808;2023-04-03T15:50:53;9.90;39.40
38514;DHT22;24282;48.400;10.808;2023-04-03T15:53:19;9.90;38.70
38514;DHT22;24282;48.400;10.808;2023-04-03T15:55:45;10.00;38.20
38514;DHT22;24282;48.400;10.808;2023-04-03T15:58:10;10.00;38.50
38514;DHT22;24282;48.400;10.808;2023-04-03T16:00:36;10.00;38.70
38514;DHT22;24282;48.400;10.808;2023-04-03T16:03:09;10.10;39.30
38514;DHT22;24282;48.400;10.808;2023-04-03T16:05:37;10.10;38.00
38514;DHT22;24282;48.400;10.808;2023-04-03T16:08:04;10.00;37.60
38514;DHT22;24282;48.400;10.808;2023-04-03T16:10:30;9.80;39.20
38514;DHT22;24282;48.400;10.808;2023-04-03T16:12:56;9.50;39.80
38514;DHT22;24282;48.400;10.808;2023-04-03T16:15:22;9.30;40.30
38514;DHT22;24282;48.400;10.808;2023-04-03T16:17:49;9.00;40.90
38514;DHT22;24282;48.400;10.808;2023-04-03T16:20:16;8.70;40.90
38514;DHT22;24282;48.400;10.808;2023-04-03T16:22:42;8.50;42.70
38514;DHT22;24282;48.400;10.808;2023-04-03T16:25:09;8.30;43.20
38514;DHT22;24282;48.400;10.808;2023-04-03T16:27:36;8.20;42.60
38514;DHT22;24282;48.400;10.808;2023-04-03T16:30:02;8.00;43.10
38514;DHT22;24282;48.400;10.808;2023-04-03T16:32:29;7.90;44.40
38514;DHT22;24282;48.400;10.808;2023-04-03T16:34:56;7.90;43.80
38514;DHT22;24282;48.400;10.808;2023-04-03T16:37:22;7.80;44.60
38514;DHT22;24282;48.400;10.808;2023-04-03T16:39:47;7.70;44.50
38514;DHT22;24282;48.400;10.808;2023-04-03T16:42:13;7.80;42.40
38514;DHT22;24282;48.400;10.808;2023-04-03T16:44:39;7.80;42.20
38514;DHT22;24282;48.400;10.808;2023-04-03T16:47:06;7.70;42.60
38514;DHT22;24282;48.400;10.808;2023-04-03T16:49:34;7.60;43.70
38514;DHT22;24282;48.400;10.808;2023-04-03T16:52:01;7.50;42.90
38514;DHT22;24282;48.400;10.808;2023-04-03T16:54:27;7.50;42.00
38514;DHT22;24282;48.400;10.808;2023-04-03T16:56:54;7.40;43.20
38514;DHT22;24282;48.400;10.808;2023-04-03T16:59:20;7.40;43.90
38514;DHT22;24282;48.400;10.808;2023-04-03T17:01:46;7.30;43.70
38514;DHT22;24282;48.400;10.808;2023-04-03T17:04:12;7.20;44.10
38514;DHT22;24282;48.400;10.808;2023-04-03T17:06:39;7.10;44.90
38514;DHT22;24282;48.400;10.808;2023-04-03T17:09:05;7.00;44.70
38514;DHT22;24282;48.400;10.808;2023-04-03T17:11:31;7.00;46.30
38514;DHT22;24282;48.400;10.808;2023-04-03T17:13:57;6.90;47.10
38514;DHT22;24282;48.400;10.808;2023-04-03T17:16:24;6.90;48.90
38514;DHT22;24282;48.400;10.808;2023-04-03T17:18:51;6.80;48.80
38514;DHT22;24282;48.400;10.808;2023-04-03T17:21:18;6.80;48.40
38514;DHT22;24282;48.400;10.808;2023-04-03T17:23:48;6.80;47.90
38514;DHT22;24282;48.400;10.808;2023-04-03T17:26:14;6.80;47.30
38514;DHT22;24282;48.400;10.808;2023-04-03T17:28:40;6.80;47.70
38514;DHT22;24282;48.400;10.808;2023-04-03T17:31:07;6.70;47.70
38514;DHT22;24282;48.400;10.808;2023-04-03T17:33:32;6.70;47.20
38514;DHT22;24282;48.400;10.808;2023-04-03T17:36:01;6.60;46.70
38514;DHT22;24282;48.400;10.808;2023-04-03T17:38:32;6.60;46.70
38514;DHT22;24282;48.400;10.808;2023-04-03T17:41:05;6.50;47.00
38514;DHT22;24282;48.400;10.808;2023-04-03T17:43:31;6.50;48.40
38514;DHT22;24282;48.400;10.808;2023-04-03T17:46:02;6.40;48.00
38514;DHT22;24282;48.400;10.808;2023-04-03T17:48:32;6.40;48.20
38514;DHT22;24282;48.400;10.808;2023-04-03T17:51:02;6.30;48.10
38514;DHT22;24282;48.400;10.808;2023-04-03T17:53:28;6.30;48.70
38514;DHT22;24282;48.400;10.808;2023-04-03T17:55:54;6.20;49.20